createdAt,value
2019-05-26T00:01:27.684Z,94.11
2019-05-26T00:03:57.059Z,94.19
2019-05-26T00:06:26.370Z,94.92
2019-05-26T00:08:55.641Z,94.78
2019-05-26T00:11:24.998Z,93.66
2019-05-26T00:13:54.324Z,94.61
2019-05-26T00:16:23.998Z,95.07
2019-05-26T00:18:53.331Z,95.96
2019-05-26T00:21:22.644Z,95.62
2019-05-26T00:23:51.966Z,95.74
2019-05-26T00:26:21.607Z,96.47
2019-05-26T00:28:50.847Z,95.75
2019-05-26T00:31:20.224Z,95.63
2019-05-26T00:33:49.625Z,95.21
2019-05-26T00:36:19.012Z,95.15
2019-05-26T00:38:48.337Z,96.34
2019-05-26T00:41:17.593Z,95.91
2019-05-26T00:43:46.831Z,96.55
2019-05-26T00:46:16.195Z,96.60
2019-05-26T00:48:45.533Z,96.85
2019-05-26T00:51:14.854Z,97.12
2019-05-26T00:53:44.124Z,97.78
2019-05-26T00:56:13.521Z,97.12
2019-05-26T00:58:42.723Z,96.30
2019-05-26T01:01:12.771Z,96.11
2019-05-26T01:03:42.138Z,96.30
2019-05-26T01:06:11.478Z,96.83
2019-05-26T01:08:40.739Z,96.84
2019-05-26T01:11:10.051Z,97.65
2019-05-26T01:13:39.376Z,97.20
2019-05-26T01:16:08.706Z,96.52
2019-05-26T01:18:37.968Z,97.32
2019-05-26T01:21:07.311Z,97.15
2019-05-26T01:23:36.567Z,97.75
2019-05-26T01:26:05.767Z,98.90
2019-05-26T01:28:35.138Z,98.21
2019-05-26T01:31:04.470Z,97.78
2019-05-26T01:33:33.921Z,97.40
2019-05-26T01:36:03.422Z,97.89
2019-05-26T01:38:33.677Z,98.48
2019-05-26T01:41:03.025Z,99.58
2019-05-26T01:43:32.467Z,98.67
2019-05-26T01:46:01.835Z,98.21
2019-05-26T01:48:31.243Z,98.71
2019-05-26T01:51:00.598Z,98.62
2019-05-26T01:53:29.920Z,98.42
2019-05-26T01:55:59.198Z,98.51
2019-05-26T01:58:28.456Z,98.56
2019-05-26T02:00:57.792Z,98.73
2019-05-26T02:03:27.415Z,98.96
2019-05-26T02:05:56.649Z,99.10
2019-05-26T02:08:38.407Z,98.75
2019-05-26T02:10:56.964Z,98.61
2019-05-26T02:13:26.301Z,98.58
2019-05-26T02:15:55.649Z,99.00
2019-05-26T02:18:24.950Z,98.85
2019-05-26T02:20:54.261Z,99.00
2019-05-26T02:23:23.581Z,98.81
2019-05-26T02:25:52.888Z,98.99
2019-05-26T02:28:22.280Z,99.34
2019-05-26T02:30:51.555Z,99.25
2019-05-26T02:33:20.821Z,99.43
2019-05-26T02:35:50.182Z,99.10
2019-05-26T02:38:19.449Z,98.94
2019-05-26T02:40:48.784Z,99.55
2019-05-26T02:43:18.209Z,99.62
2019-05-26T02:45:47.523Z,99.93
2019-05-26T02:48:16.862Z,99.55
2019-05-26T02:50:46.135Z,98.95
2019-05-26T02:53:15.429Z,99.23
2019-05-26T02:55:44.831Z,99.17
2019-05-26T02:58:14.185Z,99.48
2019-05-26T03:00:44.957Z,99.51
2019-05-26T03:03:16.314Z,99.02
2019-05-26T03:05:46.801Z,99.16
2019-05-26T03:08:17.416Z,99.89
2019-05-26T03:10:48.176Z,99.89
2019-05-26T03:13:18.466Z,99.88
2019-05-26T03:15:48.323Z,99.98
2019-05-26T03:18:18.169Z,99.72
2019-05-26T03:20:47.610Z,99.70
2019-05-26T03:23:17.701Z,99.51
2019-05-26T03:25:47.019Z,99.18
2019-05-26T03:28:16.193Z,99.33
2019-05-26T03:30:45.542Z,99.75
2019-05-26T03:33:14.998Z,99.89
2019-05-26T03:35:44.301Z,99.89
2019-05-26T03:38:13.744Z,99.63
2019-05-26T03:40:43.166Z,99.81
2019-05-26T03:43:12.469Z,99.90
2019-05-26T03:46:19.918Z,99.16
2019-05-26T03:48:49.611Z,98.76
2019-05-26T03:51:19.836Z,98.99
2019-05-26T03:53:49.325Z,99.69
2019-05-26T03:56:18.828Z,99.35
2019-05-26T03:58:48.208Z,99.39
2019-05-26T04:01:17.645Z,98.98
2019-05-26T04:03:47.004Z,98.82
2019-05-26T04:06:16.393Z,98.38
2019-05-26T04:08:45.738Z,98.44
2019-05-26T04:11:15.177Z,98.88
2019-05-26T04:13:44.586Z,97.83
2019-05-26T04:16:13.960Z,97.75
2019-05-26T04:18:43.378Z,97.71
2019-05-26T04:21:12.711Z,97.44
2019-05-26T04:23:42.007Z,98.18
2019-05-26T04:26:11.327Z,98.68
2019-05-26T04:28:40.601Z,98.16
2019-05-26T04:31:09.896Z,97.50
2019-05-26T04:33:39.195Z,97.98
2019-05-26T04:36:08.473Z,97.71
2019-05-26T04:38:37.918Z,97.99
2019-05-26T04:41:07.225Z,97.64
2019-05-26T04:43:36.632Z,96.89
2019-05-26T04:46:05.982Z,96.44
2019-05-26T04:48:35.385Z,96.46
2019-05-26T04:51:04.687Z,96.25
2019-05-26T04:53:34.058Z,96.18
2019-05-26T04:56:03.318Z,96.35
2019-05-26T04:58:32.633Z,96.95
2019-05-26T05:01:01.870Z,96.78
2019-05-26T05:03:31.160Z,96.23
2019-05-26T05:06:00.380Z,96.37
2019-05-26T05:08:29.721Z,95.73
2019-05-26T05:10:59.061Z,95.17
2019-05-26T05:13:28.255Z,95.00
2019-05-26T05:15:57.650Z,93.09
2019-05-26T05:18:27.028Z,92.99
2019-05-26T05:20:56.260Z,92.25
2019-05-26T05:23:25.568Z,90.67
2019-05-26T05:25:54.729Z,89.18
2019-05-26T05:28:24.050Z,85.89
2019-05-26T05:30:53.341Z,82.72
2019-05-26T05:33:22.678Z,78.86
2019-05-26T05:35:51.842Z,78.70
2019-05-26T05:38:21.247Z,79.31
2019-05-26T05:40:59.690Z,79.58
2019-05-26T05:43:21.658Z,79.41
2019-05-26T05:45:51.034Z,80.66
2019-05-26T05:48:20.328Z,81.03
2019-05-26T05:50:49.583Z,82.36
2019-05-26T05:53:18.990Z,81.52
2019-05-26T05:55:48.282Z,75.65
2019-05-26T05:58:17.517Z,75.27
2019-05-26T06:00:47.152Z,72.25
2019-05-26T06:03:18.575Z,65.74
2019-05-26T06:05:47.426Z,67.96
2019-05-26T06:08:16.581Z,64.91
2019-05-26T06:10:45.909Z,69.74
2019-05-26T06:13:15.170Z,64.76
2019-05-26T06:15:44.505Z,63.08
2019-05-26T06:18:13.733Z,65.26
2019-05-26T06:20:42.967Z,71.87
2019-05-26T06:23:12.199Z,73.60
2019-05-26T06:25:41.400Z,66.52
2019-05-26T06:28:10.633Z,64.37
2019-05-26T06:30:39.846Z,59.53
2019-05-26T06:33:09.136Z,56.88
2019-05-26T06:35:38.378Z,59.21
2019-05-26T06:38:07.551Z,56.83
2019-05-26T06:40:36.838Z,55.34
2019-05-26T06:43:06.206Z,57.97
2019-05-26T06:45:35.725Z,52.29
2019-05-26T06:48:05.040Z,59.31
2019-05-26T06:50:34.470Z,56.26
2019-05-26T06:53:03.793Z,54.71
2019-05-26T06:55:33.246Z,55.04
2019-05-26T06:58:02.608Z,57.92
2019-05-26T07:00:31.973Z,51.92
2019-05-26T07:03:01.242Z,50.32
2019-05-26T07:05:30.641Z,49.03
2019-05-26T07:07:59.981Z,49.76
2019-05-26T07:10:29.295Z,48.77
2019-05-26T07:12:58.633Z,52.07
2019-05-26T07:15:27.917Z,51.71
2019-05-26T07:17:57.551Z,51.62
2019-05-26T07:20:26.835Z,49.44
2019-05-26T07:22:56.085Z,49.33
2019-05-26T07:25:25.491Z,46.36
2019-05-26T07:27:54.883Z,47.85
2019-05-26T07:30:24.268Z,52.87
2019-05-26T07:32:53.675Z,53.08
2019-05-26T07:35:23.010Z,50.21
2019-05-26T07:37:52.391Z,47.63
2019-05-26T07:40:21.705Z,44.35
2019-05-26T07:42:51.243Z,46.46
2019-05-26T07:45:20.572Z,45.40
2019-05-26T07:47:49.979Z,40.02
2019-05-26T07:50:19.233Z,41.34
2019-05-26T07:52:48.561Z,42.45
2019-05-26T07:55:17.973Z,39.03
2019-05-26T07:57:47.307Z,39.27
2019-05-26T08:00:17.076Z,41.87
2019-05-26T08:02:46.381Z,39.88
2019-05-26T08:05:15.791Z,35.46
2019-05-26T08:07:45.125Z,36.45
2019-05-26T08:10:15.724Z,37.45
2019-05-26T08:12:45.112Z,36.90
2019-05-26T08:15:14.817Z,38.96
2019-05-26T08:17:44.183Z,39.63
2019-05-26T08:20:14.809Z,39.44
2019-05-26T08:22:44.271Z,41.84
2019-05-26T08:25:14.375Z,38.93
2019-05-26T08:27:43.630Z,38.32
2019-05-26T08:30:14.262Z,43.15
2019-05-26T08:32:43.586Z,41.37
2019-05-26T08:35:13.205Z,37.98
2019-05-26T08:37:42.515Z,40.60
2019-05-26T08:40:18.268Z,40.76
2019-05-26T08:42:49.350Z,38.42
2019-05-26T08:45:21.803Z,35.73
2019-05-26T08:47:51.572Z,42.23
2019-05-26T08:50:21.796Z,37.81
2019-05-26T08:52:51.101Z,35.12
2019-05-26T08:55:21.471Z,36.20
2019-05-26T08:57:50.639Z,34.61
2019-05-26T09:00:20.042Z,30.75
2019-05-26T09:02:49.422Z,29.32
2019-05-26T09:05:19.412Z,26.83
2019-05-26T09:07:48.864Z,32.97
2019-05-26T09:10:18.526Z,30.52
2019-05-26T09:13:00.321Z,29.72
2019-05-26T09:15:19.358Z,31.21
2019-05-26T09:17:48.808Z,32.28
2019-05-26T09:20:18.396Z,29.39
2019-05-26T09:22:47.705Z,28.34
2019-05-26T09:25:17.100Z,30.60
2019-05-26T09:27:46.624Z,31.29
2019-05-26T09:30:16.419Z,28.64
2019-05-26T09:32:45.721Z,28.22
2019-05-26T09:35:15.414Z,29.38
2019-05-26T09:37:44.655Z,27.74
2019-05-26T09:40:15.615Z,32.54
2019-05-26T09:42:44.837Z,29.89
2019-05-26T09:45:14.696Z,28.19
2019-05-26T09:47:43.950Z,25.00
2019-05-26T09:50:14.666Z,24.57
2019-05-26T09:52:43.909Z,22.92
2019-05-26T09:55:14.551Z,27.57
2019-05-26T09:57:43.722Z,27.69
2019-05-26T10:00:16.033Z,24.51
2019-05-26T10:02:44.718Z,27.65
2019-05-26T10:05:14.238Z,25.61
2019-05-26T10:07:43.812Z,25.01
2019-05-26T10:10:13.664Z,22.00
2019-05-26T10:12:43.145Z,25.36
2019-05-26T10:15:12.652Z,24.09
2019-05-26T10:17:41.883Z,25.59
2019-05-26T10:20:12.831Z,26.24
2019-05-26T10:22:42.239Z,27.75
2019-05-26T10:25:13.013Z,25.63
2019-05-26T10:27:42.281Z,26.23
2019-05-26T10:30:13.313Z,27.61
2019-05-26T10:32:42.549Z,24.82
2019-05-26T10:35:12.293Z,23.87
2019-05-26T10:37:41.590Z,24.55
2019-05-26T10:40:11.632Z,25.13
2019-05-26T10:42:40.892Z,23.55
2019-05-26T10:45:11.276Z,26.69
2019-05-26T10:47:40.525Z,26.51
2019-05-26T10:50:10.280Z,28.79
2019-05-26T10:52:39.622Z,28.61
2019-05-26T10:55:09.642Z,32.00
2019-05-26T10:57:38.907Z,31.08
2019-05-26T11:00:09.068Z,30.01
2019-05-26T11:02:38.458Z,26.54
2019-05-26T11:05:08.715Z,27.20
2019-05-26T11:07:38.024Z,28.22
2019-05-26T11:10:08.437Z,27.17
2019-05-26T11:12:37.846Z,25.78
2019-05-26T11:15:07.771Z,26.95
2019-05-26T11:17:37.072Z,26.68
2019-05-26T11:20:07.370Z,28.62
2019-05-26T11:22:36.557Z,27.29
2019-05-26T11:25:06.683Z,25.53
2019-05-26T11:27:36.047Z,25.20
2019-05-26T11:30:06.511Z,27.72
2019-05-26T11:32:35.815Z,27.81
2019-05-26T11:35:05.924Z,31.20
2019-05-26T11:37:35.389Z,31.69
2019-05-26T11:40:05.140Z,27.09
2019-05-26T11:42:34.397Z,29.36
2019-05-26T11:45:03.627Z,28.63
2019-05-26T11:47:32.911Z,26.02
2019-05-26T11:50:02.177Z,26.58
2019-05-26T11:52:31.511Z,25.40
2019-05-26T11:55:00.856Z,25.55
2019-05-26T11:57:30.119Z,24.30
2019-05-26T11:59:59.389Z,24.24
2019-05-26T12:02:28.699Z,26.32
2019-05-26T12:04:57.974Z,23.68
2019-05-26T12:07:27.300Z,24.30
2019-05-26T12:09:56.625Z,26.89
2019-05-26T12:12:25.847Z,26.22
2019-05-26T12:14:55.166Z,28.47
2019-05-26T12:17:24.445Z,28.67
2019-05-26T12:19:53.685Z,25.64
2019-05-26T12:22:22.956Z,27.77
2019-05-26T12:24:52.274Z,27.00
2019-05-26T12:27:21.672Z,27.48
2019-05-26T12:29:50.975Z,30.11
2019-05-26T12:32:20.211Z,30.51
2019-05-26T12:34:49.557Z,28.22
2019-05-26T12:37:18.893Z,29.96
2019-05-26T12:39:48.139Z,28.42
2019-05-26T12:42:17.417Z,26.66
2019-05-26T12:44:49.875Z,26.34
2019-05-26T12:47:17.849Z,26.34
2019-05-26T12:49:47.153Z,26.29
2019-05-26T12:52:16.487Z,25.14
2019-05-26T12:54:45.765Z,25.06
2019-05-26T12:57:14.989Z,25.16
2019-05-26T12:59:44.393Z,28.39
2019-05-26T13:02:13.748Z,27.74
2019-05-26T13:04:43.116Z,29.03
2019-05-26T13:07:58.676Z,29.15
2019-05-26T13:10:27.962Z,27.21
2019-05-26T13:12:57.176Z,26.30
2019-05-26T13:15:26.837Z,25.61
2019-05-26T13:17:56.044Z,27.15
2019-05-26T13:20:25.465Z,27.12
2019-05-26T13:22:54.705Z,27.26
2019-05-26T13:25:24.191Z,29.49
2019-05-26T13:27:53.461Z,30.27
2019-05-26T13:30:23.568Z,29.88
2019-05-26T13:32:53.001Z,28.87
2019-05-26T13:35:22.664Z,27.53
2019-05-26T13:37:51.887Z,30.72
2019-05-26T13:40:21.363Z,29.97
2019-05-26T13:42:50.595Z,27.60
2019-05-26T13:45:22.807Z,29.72
2019-05-26T13:47:51.263Z,32.77
2019-05-26T13:50:22.707Z,32.75
2019-05-26T13:52:51.968Z,33.25
2019-05-26T13:55:21.528Z,33.29
2019-05-26T13:57:50.830Z,28.73
2019-05-26T14:00:20.884Z,30.42
2019-05-26T14:02:50.195Z,27.43
2019-05-26T14:05:19.476Z,30.83
2019-05-26T14:07:48.705Z,32.70
2019-05-26T14:10:31.612Z,34.94
2019-05-26T14:13:00.911Z,36.32
2019-05-26T14:15:37.912Z,38.00
2019-05-26T14:18:02.617Z,38.48
2019-05-26T14:20:37.242Z,37.72
2019-05-26T14:23:07.876Z,37.07
2019-05-26T14:25:37.461Z,36.24
2019-05-26T14:28:07.601Z,35.28
2019-05-26T14:30:37.286Z,36.03
2019-05-26T14:33:07.017Z,36.23
2019-05-26T14:35:36.263Z,37.87
2019-05-26T14:38:05.858Z,38.33
2019-05-26T14:40:35.059Z,38.39
2019-05-26T14:43:04.549Z,37.38
2019-05-26T14:45:34.212Z,36.70
2019-05-26T14:48:03.497Z,37.40
2019-05-26T14:50:32.739Z,35.98
2019-05-26T14:53:02.064Z,36.44
2019-05-26T14:55:31.328Z,35.37
2019-05-26T14:58:14.215Z,34.95
2019-05-26T15:00:31.557Z,36.24
2019-05-26T15:03:00.869Z,38.48
2019-05-26T15:05:30.206Z,39.66
2019-05-26T15:07:59.498Z,39.61
2019-05-26T15:10:28.706Z,41.15
2019-05-26T15:12:58.069Z,40.76
2019-05-26T15:15:27.268Z,40.92
2019-05-26T15:17:56.507Z,40.92
2019-05-26T15:20:25.807Z,43.19
2019-05-26T15:22:54.984Z,41.65
2019-05-26T15:25:24.328Z,40.40
2019-05-26T15:27:53.568Z,38.35
2019-05-26T15:30:23.161Z,39.85
2019-05-26T15:32:52.331Z,40.33
2019-05-26T15:35:21.635Z,39.38
2019-05-26T15:37:50.893Z,40.85
2019-05-26T15:40:20.154Z,40.96
2019-05-26T15:42:49.444Z,41.15
2019-05-26T15:45:19.181Z,42.37
2019-05-26T15:47:48.404Z,42.99
2019-05-26T15:50:18.037Z,42.97
2019-05-26T15:52:47.327Z,42.69
2019-05-26T15:55:16.823Z,42.74
2019-05-26T15:57:46.001Z,43.74
2019-05-26T16:00:15.303Z,44.69
2019-05-26T16:02:44.696Z,44.19
2019-05-26T16:05:14.607Z,45.36
2019-05-26T16:07:43.882Z,44.53
2019-05-26T16:10:14.383Z,44.98
2019-05-26T16:12:43.631Z,45.15
2019-05-26T16:15:14.350Z,46.47
2019-05-26T16:17:43.562Z,45.66
2019-05-26T16:20:13.187Z,46.32
2019-05-26T16:22:42.381Z,46.28
2019-05-26T16:25:11.816Z,46.41
2019-05-26T16:27:41.048Z,47.36
2019-05-26T16:30:10.934Z,46.47
2019-05-26T16:32:40.129Z,46.25
2019-05-26T16:35:09.885Z,47.07
2019-05-26T16:37:39.140Z,47.35
2019-05-26T16:40:09.458Z,47.69
2019-05-26T16:42:38.613Z,47.43
2019-05-26T16:45:09.055Z,48.22
2019-05-26T16:47:38.267Z,47.41
2019-05-26T16:50:08.258Z,47.50
2019-05-26T16:52:37.512Z,48.68
2019-05-26T16:55:07.125Z,48.39
2019-05-26T16:57:36.441Z,48.14
2019-05-26T17:00:07.223Z,48.35
2019-05-26T17:02:36.535Z,48.06
2019-05-26T17:05:06.054Z,48.63
2019-05-26T17:07:35.413Z,48.74
2019-05-26T17:10:05.531Z,48.73
2019-05-26T17:12:34.811Z,49.47
2019-05-26T17:15:04.170Z,49.92
2019-05-26T17:17:33.353Z,49.85
2019-05-26T17:20:02.510Z,49.84
2019-05-26T17:22:31.707Z,50.75
2019-05-26T17:25:00.932Z,50.61
2019-05-26T17:27:30.316Z,51.25
2019-05-26T17:29:59.490Z,51.52
2019-05-26T17:32:28.798Z,52.13
2019-05-26T17:34:58.066Z,51.74
2019-05-26T17:37:27.269Z,52.05
2019-05-26T17:39:56.524Z,52.18
2019-05-26T17:42:25.727Z,52.73
2019-05-26T17:44:54.962Z,53.13
2019-05-26T17:47:30.301Z,53.73
2019-05-26T17:49:55.135Z,54.61
2019-05-26T17:52:57.720Z,54.17
2019-05-26T17:55:27.540Z,55.15
2019-05-26T17:57:56.924Z,55.46
2019-05-26T18:00:31.151Z,56.17
2019-05-26T18:03:06.529Z,56.18
2019-05-26T18:05:38.863Z,56.09
2019-05-26T18:08:12.377Z,55.47
2019-05-26T18:10:48.613Z,55.99
2019-05-26T18:13:21.349Z,55.83
2019-05-26T18:16:00.770Z,56.01
2019-05-26T18:18:31.380Z,57.03
2019-05-26T18:21:01.895Z,56.93
2019-05-26T18:23:31.129Z,57.19
2019-05-26T18:26:00.338Z,57.95
2019-05-26T18:28:29.588Z,58.18
2019-05-26T18:30:58.778Z,58.66
2019-05-26T18:33:28.035Z,58.29
2019-05-26T18:35:57.295Z,58.67
2019-05-26T18:38:26.620Z,58.56
2019-05-26T18:40:55.835Z,58.71
2019-05-26T18:43:25.245Z,58.41
2019-05-26T18:45:54.522Z,58.68
2019-05-26T18:48:23.748Z,59.11
2019-05-26T18:50:52.966Z,59.05
2019-05-26T18:53:22.146Z,59.58
2019-05-26T18:55:51.455Z,59.90
2019-05-26T18:58:20.760Z,58.48
2019-05-26T19:00:50.176Z,58.40
2019-05-26T19:03:19.708Z,58.29
2019-05-26T19:05:48.953Z,58.80
2019-05-26T19:08:18.207Z,58.48
2019-05-26T19:10:47.443Z,58.16
2019-05-26T19:13:16.701Z,58.81
2019-05-26T19:15:46.041Z,58.78
2019-05-26T19:18:20.039Z,57.64
2019-05-26T19:20:46.240Z,58.47
2019-05-26T19:23:15.478Z,58.39
2019-05-26T19:25:44.966Z,59.26
2019-05-26T19:28:14.112Z,58.66
2019-05-26T19:30:45.635Z,59.83
2019-05-26T19:33:14.285Z,59.67
2019-05-26T19:35:43.608Z,59.58
2019-05-26T19:38:12.776Z,59.50
2019-05-26T19:40:41.999Z,60.01
2019-05-26T19:43:11.222Z,59.93
2019-05-26T19:45:40.440Z,60.05
2019-05-26T19:48:09.686Z,59.50
2019-05-26T19:50:39.047Z,59.64
2019-05-26T19:53:08.335Z,59.76
2019-05-26T19:55:37.607Z,60.53
2019-05-26T19:58:07.105Z,61.03
2019-05-26T20:00:36.337Z,61.43
2019-05-26T20:03:05.861Z,61.57
2019-05-26T20:05:35.289Z,61.69
2019-05-26T20:08:04.735Z,61.27
2019-05-26T20:10:33.983Z,61.84
2019-05-26T20:13:03.220Z,60.95
2019-05-26T20:15:32.537Z,60.60
2019-05-26T20:18:01.854Z,61.16
2019-05-26T20:20:31.282Z,61.05
2019-05-26T20:23:00.687Z,60.58
2019-05-26T20:25:29.970Z,60.55
2019-05-26T20:27:59.140Z,61.02
2019-05-26T20:30:28.389Z,61.20
2019-05-26T20:32:57.643Z,61.23
2019-05-26T20:35:26.874Z,61.22
2019-05-26T20:37:56.084Z,61.07
2019-05-26T20:40:25.432Z,61.50
2019-05-26T20:42:54.635Z,61.21
2019-05-26T20:45:24.668Z,61.57
2019-05-26T20:47:53.909Z,62.31
2019-05-26T20:50:29.172Z,61.87
2019-05-26T20:52:54.215Z,61.91
2019-05-26T20:55:23.517Z,62.29
2019-05-26T20:57:52.701Z,61.88
2019-05-26T21:00:22.562Z,62.70
2019-05-26T21:02:52.177Z,62.79
2019-05-26T21:05:21.417Z,62.55
2019-05-26T21:07:50.832Z,62.65
2019-05-26T21:10:20.100Z,63.58
2019-05-26T21:12:49.312Z,63.27
2019-05-26T21:15:18.676Z,63.46
2019-05-26T21:17:47.935Z,64.07
2019-05-26T21:20:17.601Z,63.57
2019-05-26T21:22:46.827Z,64.46
2019-05-26T21:25:16.184Z,63.98
2019-05-26T21:27:45.391Z,64.09
2019-05-26T21:30:17.161Z,64.41
2019-05-26T21:32:46.519Z,64.79
2019-05-26T21:35:15.961Z,64.91
2019-05-26T21:37:45.219Z,65.14
2019-05-26T21:40:14.791Z,64.85
2019-05-26T21:42:44.055Z,64.67
2019-05-26T21:45:13.906Z,64.58
2019-05-26T21:47:43.225Z,65.24
2019-05-26T21:50:12.652Z,65.02
2019-05-26T21:52:41.955Z,65.45
2019-05-26T21:55:11.754Z,65.45
2019-05-26T21:57:40.942Z,66.78
2019-05-26T22:00:13.166Z,66.62
2019-05-26T22:02:42.367Z,66.72
2019-05-26T22:05:12.115Z,66.72
2019-05-26T22:07:41.659Z,66.83
2019-05-26T22:10:11.122Z,67.14
2019-05-26T22:12:40.321Z,67.85
2019-05-26T22:15:10.064Z,67.87
2019-05-26T22:17:39.342Z,68.17
2019-05-26T22:20:09.245Z,68.50
2019-05-26T22:22:38.471Z,68.97
2019-05-26T22:25:08.129Z,68.83
2019-05-26T22:27:37.370Z,69.08
2019-05-26T22:30:07.136Z,68.90
2019-05-26T22:32:36.357Z,68.96
2019-05-26T22:35:06.419Z,69.14
2019-05-26T22:37:35.591Z,68.56
2019-05-26T22:40:06.571Z,68.56
2019-05-26T22:42:35.823Z,68.73
2019-05-26T22:45:05.529Z,68.98
2019-05-26T22:47:34.778Z,69.38
2019-05-26T22:50:04.323Z,69.56
2019-05-26T22:52:33.553Z,69.56
2019-05-26T22:55:02.795Z,68.84
2019-05-26T22:57:31.988Z,69.55
2019-05-26T23:00:01.236Z,69.87
2019-05-26T23:02:30.416Z,70.13
2019-05-26T23:04:59.639Z,70.26
2019-05-26T23:07:28.832Z,70.50
2019-05-26T23:09:58.077Z,70.68
2019-05-26T23:12:27.233Z,70.52
2019-05-26T23:14:56.491Z,70.70
2019-05-26T23:17:25.646Z,70.88
2019-05-26T23:19:54.934Z,71.42
2019-05-26T23:22:24.248Z,71.42
2019-05-26T23:24:53.501Z,71.62
2019-05-26T23:27:22.715Z,71.97
2019-05-26T23:29:51.884Z,72.07
2019-05-26T23:32:21.118Z,72.31
2019-05-26T23:34:50.385Z,72.35
2019-05-26T23:37:19.645Z,72.53
2019-05-26T23:39:48.993Z,72.60
2019-05-26T23:42:18.230Z,73.02
2019-05-26T23:44:47.455Z,73.66
2019-05-26T23:47:16.756Z,73.67
2019-05-26T23:49:45.938Z,74.23
2019-05-26T23:52:15.248Z,74.23
2019-05-26T23:54:44.434Z,73.88
2019-05-26T23:57:13.639Z,74.00
2019-05-26T23:59:42.842Z,74.97
